Hlavní strana
METAR-TAF:

METAR-TAF

Letiště :

Kugluktuk, Nunavut, Kanada

zeměpisná šířka: 67-49N, zeměpisná délka: 115-08W, výška: 22 m

Aktuální stav počasí

Zpráva byla vytvořena před 26 minutami, v 06:00 UTC
Východojihovýchodní vítr 11 kt
Teplota -23°C
Vlhkost vzduchu 63%
Tlak 1017 hPa
Viditelnost: 24.1 km
Skoro jasno ve výšce 10000 ft
Skoro jasno ve výšce 17000 ft
ledové krystalky

METAR: CYCO 210600Z CCA 11011KT 15SM IC FEW100 FEW170 M23/M28 A3003 RMK AC1AS2 AC TR SLP173

Čas: 23:26 (06:26 UTC)

Předpověď počasí

Zpráva byla vytvořena před 5 hodinami a 48 minutami, v 00:38 UTC
Předpověď platná od 21 v 01 UTC do 21 v 13 UTC
vítr z různých směrů 3 kt
Viditelnost: 10 km
Skoro jasno ve výšce 8000 ft
Skoro jasno ve výšce 12000 ft

TAF: CYCO 210038Z 2101/2113 VRB03KT P6SM FEW080 FEW120 RMK NXT FCST BY 210700Z

Stav a předpovědi počasí z více než 4 000 letišť (zprávy METAR a TAF).

Červené a žluté tečky na mapě představují dostupné meteorologické stanice.

Když kurzor umístíte na tečku, zobrazí se název stanice.

Pak kliknutím zobrazíte stav a předpověď počasí.

Chcete-li změnit mapu, kliknutím na zelené tlačítko se znaménkem +mapu přiblížíte, kliknutím na zelené tlačítko se znaménkem – mapu oddálíte a kliknutím na zelené šipky přejdete na sousední mapy.


METAR-TAF: